KTDF

Details ICAO KTDF
Name Person Co
Region United States
Timezone America/New_York (UTC-5.0)
Plans Departing 9
Arriving 2
Stats Elevation 610 ft / 186 m (AMSL)
Location 36.284616° -78.984226°
Runways 1
Magnetic Variation 9.136° W
Sunrise 2017-12-18 12:23:22 UTC / 2017-12-18 07:23:22 Local
Sunset 2017-12-18 22:04:39 UTC / 2017-12-18 17:04:39 Local
Advertisement - Login to hide

Runways

ID Width Length Bearing (true) Bearing (mag) Surface Threshold Offset Overrun Length
06 100 ft / 30 m 5,825 ft / 1,775 m 50.42° 59.56° Asphalt 600 ft / 183 m 0 ft / 0 m
24 100 ft / 30 m 5,825 ft / 1,775 m 230.43° 239.57° Asphalt 0 ft / 0 m 0 ft / 0 m

Approach Navaids

Runway Type Ident Frequency Range Bearing (true) Bearing (mag) Slope Elevation
06 Localiser ITDF 108.70 MHz 18 nm / 33 km 50.51° 59.64° - 610 ft / 186 m (AMSL)
06 Glidescope ITDF 108.70 MHz 10 nm / 19 km 50.43° 59.56° 3.00° 591 ft / 180 m (AMSL)
06 DME ITDF 108.70 MHz 18 nm / 33 km - - - 591 ft / 180 m (AMSL)

Map

Weather


0- 5 10 15 20 25 30 35+ Temperature / ° C

Clouds and Precipitation
Forecast for 2017-12-18 12:00 UTC. Updated an hour ago

Ground ~20,000 ft ~40,000 ft Winds

METAR

KTDF 181200Z AUTO 00000KT 5SM BR CLR M01/M01 A3018 RMK AO2

TAF

Not found

Frequencies

Recorded 126.72 MHz AWOS 3
Approach 132.35 MHz RALEIGH APP/DEP
Unicom 122.70 MHz CTAF/UNICOM
Warning: Do not use this data for real-world aviation or navigation. No guarantee of current accuracy is given.